createdAt,value
2016-12-26T00:00:27.375Z,99.99
2016-12-26T00:01:27.367Z,99.99
2016-12-26T00:02:27.357Z,99.99
2016-12-26T00:03:27.355Z,99.99
2016-12-26T00:04:27.343Z,99.99
2016-12-26T00:05:27.335Z,99.99
2016-12-26T00:06:27.331Z,99.99
2016-12-26T00:07:27.320Z,99.99
2016-12-26T00:08:27.314Z,99.99
2016-12-26T00:09:27.305Z,99.99
2016-12-26T00:10:27.297Z,99.99
2016-12-26T00:11:27.287Z,99.99
2016-12-26T00:12:27.283Z,99.99
2016-12-26T00:13:27.276Z,99.99
2016-12-26T00:14:27.265Z,99.99
2016-12-26T00:15:27.263Z,99.99
2016-12-26T00:16:27.249Z,99.99
2016-12-26T00:17:27.241Z,99.99
2016-12-26T00:18:27.236Z,99.99
2016-12-26T00:19:27.231Z,99.99
2016-12-26T00:20:27.218Z,99.99
2016-12-26T00:21:27.211Z,99.99
2016-12-26T00:22:27.204Z,99.99
2016-12-26T00:23:27.498Z,99.99
2016-12-26T00:24:27.187Z,99.99
2016-12-26T00:25:27.179Z,99.99
2016-12-26T00:26:27.172Z,99.99
2016-12-26T00:27:27.164Z,99.99
2016-12-26T00:28:27.155Z,99.99
2016-12-26T00:29:27.147Z,99.99
2016-12-26T00:30:27.450Z,99.99
2016-12-26T00:31:27.132Z,99.99
2016-12-26T00:32:27.124Z,99.99
2016-12-26T00:33:27.116Z,99.99
2016-12-26T00:34:27.109Z,99.99
2016-12-26T00:35:27.101Z,99.99
2016-12-26T00:36:27.096Z,99.99
2016-12-26T00:37:27.088Z,99.99
2016-12-26T00:38:27.384Z,99.99
2016-12-26T00:39:27.075Z,99.99
2016-12-26T00:40:27.061Z,99.99
2016-12-26T00:41:27.053Z,99.99
2016-12-26T00:42:27.045Z,99.99
2016-12-26T00:43:27.040Z,99.99
2016-12-26T00:44:27.034Z,99.99
2016-12-26T00:45:27.023Z,99.99
2016-12-26T00:46:27.014Z,99.99
2016-12-26T00:47:27.007Z,99.99
2016-12-26T00:48:26.998Z,99.99
2016-12-26T00:49:26.992Z,99.99
2016-12-26T00:50:26.985Z,99.99
2016-12-26T00:51:26.975Z,99.99
2016-12-26T00:52:26.969Z,99.99
2016-12-26T00:53:26.997Z,99.99
2016-12-26T00:54:26.950Z,99.99
2016-12-26T00:55:26.946Z,99.99
2016-12-26T00:56:26.939Z,99.99
2016-12-26T00:57:26.926Z,99.99
2016-12-26T00:58:26.921Z,99.99
2016-12-26T00:59:26.919Z,99.99
2016-12-26T01:00:26.905Z,99.99
2016-12-26T01:01:26.895Z,99.99
2016-12-26T01:02:26.888Z,99.99
2016-12-26T01:03:26.880Z,99.99
2016-12-26T01:04:26.872Z,99.99
2016-12-26T01:05:26.865Z,99.99
2016-12-26T01:06:26.858Z,99.99
2016-12-26T01:07:26.851Z,99.99
2016-12-26T01:08:26.844Z,99.99
2016-12-26T01:09:26.834Z,99.99
2016-12-26T01:10:26.826Z,99.99
2016-12-26T01:11:26.819Z,99.99
2016-12-26T01:12:26.810Z,99.99
2016-12-26T01:13:26.802Z,99.99
2016-12-26T01:14:26.794Z,99.99
2016-12-26T01:15:26.787Z,99.99
2016-12-26T01:16:26.779Z,99.99
2016-12-26T01:17:26.771Z,99.99
2016-12-26T01:18:26.766Z,99.99
2016-12-26T01:19:26.759Z,99.99
2016-12-26T01:20:26.753Z,99.99
2016-12-26T01:21:26.742Z,99.99
2016-12-26T01:22:26.732Z,99.99
2016-12-26T01:23:26.727Z,99.99
2016-12-26T01:24:26.719Z,99.99
2016-12-26T01:25:26.709Z,99.99
2016-12-26T01:26:26.702Z,99.99
2016-12-26T01:27:26.696Z,99.99
2016-12-26T01:28:26.988Z,99.99
2016-12-26T01:29:26.681Z,99.99
2016-12-26T01:30:26.672Z,99.99
2016-12-26T01:31:26.663Z,99.99
2016-12-26T01:32:26.655Z,99.99
2016-12-26T01:33:26.650Z,99.99
2016-12-26T01:34:26.638Z,99.99
2016-12-26T01:35:26.633Z,99.99
2016-12-26T01:36:26.627Z,99.99
2016-12-26T01:37:26.616Z,99.99
2016-12-26T01:38:26.608Z,99.99
2016-12-26T01:39:26.601Z,99.99
2016-12-26T01:40:26.595Z,99.99
2016-12-26T01:41:26.585Z,99.99
2016-12-26T01:42:26.578Z,99.99
2016-12-26T01:43:26.582Z,99.99
2016-12-26T01:44:26.563Z,99.99
2016-12-26T01:45:26.556Z,99.99
2016-12-26T01:46:26.547Z,99.99
2016-12-26T01:47:26.541Z,99.99
2016-12-26T01:48:26.534Z,99.99
2016-12-26T01:49:26.528Z,99.99
2016-12-26T01:50:26.517Z,99.99
2016-12-26T01:51:26.509Z,99.99
2016-12-26T01:52:26.502Z,99.99
2016-12-26T01:53:26.493Z,99.99
2016-12-26T01:54:26.489Z,99.99
2016-12-26T01:55:26.478Z,99.99
2016-12-26T01:56:26.470Z,99.99
2016-12-26T01:57:26.464Z,99.99
2016-12-26T01:58:26.456Z,99.99
2016-12-26T01:59:26.451Z,99.99
2016-12-26T02:00:26.439Z,99.99
2016-12-26T02:01:26.432Z,99.99
2016-12-26T02:02:26.424Z,99.99
2016-12-26T02:03:26.416Z,99.99
2016-12-26T02:04:26.410Z,99.99
2016-12-26T02:05:26.401Z,99.99
2016-12-26T02:06:26.395Z,99.99
2016-12-26T02:07:26.386Z,99.99
2016-12-26T02:08:26.380Z,99.99
2016-12-26T02:09:26.371Z,99.99
2016-12-26T02:10:26.362Z,99.99
2016-12-26T02:11:26.357Z,99.99
2016-12-26T02:12:26.348Z,99.99
2016-12-26T02:13:26.364Z,99.99
2016-12-26T02:14:26.332Z,99.99
2016-12-26T02:15:26.324Z,99.99
2016-12-26T02:16:26.316Z,99.99
2016-12-26T02:17:26.308Z,99.99
2016-12-26T02:18:26.301Z,99.99
2016-12-26T02:19:26.293Z,99.99
2016-12-26T02:20:26.287Z,99.99
2016-12-26T02:21:26.277Z,99.99
2016-12-26T02:22:26.269Z,99.99
2016-12-26T02:23:26.262Z,99.99
2016-12-26T02:24:26.255Z,99.99
2016-12-26T02:25:26.247Z,99.99
2016-12-26T02:26:26.240Z,99.99
2016-12-26T02:27:26.232Z,99.99
2016-12-26T02:28:26.224Z,99.99
2016-12-26T02:29:26.216Z,99.99
2016-12-26T02:30:26.209Z,99.99
2016-12-26T02:31:26.210Z,99.99
2016-12-26T02:32:26.194Z,99.99
2016-12-26T02:33:26.187Z,99.99
2016-12-26T02:34:26.178Z,99.99
2016-12-26T02:35:26.170Z,99.99
2016-12-26T02:36:26.161Z,99.99
2016-12-26T02:37:26.156Z,99.99
2016-12-26T02:38:26.172Z,99.99
2016-12-26T02:39:26.140Z,99.99
2016-12-26T02:40:26.132Z,99.99
2016-12-26T02:41:26.124Z,99.99
2016-12-26T02:42:26.120Z,99.99
2016-12-26T02:43:26.108Z,99.99
2016-12-26T02:44:26.108Z,99.99
2016-12-26T02:45:26.093Z,99.99
2016-12-26T02:46:26.086Z,99.99
2016-12-26T02:47:26.086Z,99.99
2016-12-26T02:48:26.070Z,99.99
2016-12-26T02:49:26.063Z,99.99
2016-12-26T02:50:26.055Z,99.99
2016-12-26T02:51:26.053Z,99.99
2016-12-26T02:52:26.040Z,99.99
2016-12-26T02:53:26.034Z,99.99
2016-12-26T02:54:26.026Z,99.99
2016-12-26T02:55:26.020Z,99.99
2016-12-26T02:56:26.013Z,99.99
2016-12-26T02:57:26.003Z,99.99
2016-12-26T02:58:25.995Z,99.99
2016-12-26T02:59:25.987Z,99.99
2016-12-26T03:00:25.980Z,99.99
2016-12-26T03:01:25.973Z,99.99
2016-12-26T03:02:25.966Z,99.99
2016-12-26T03:03:25.960Z,99.99
2016-12-26T03:04:25.951Z,99.99
2016-12-26T03:05:25.943Z,99.99
2016-12-26T03:06:25.935Z,99.99
2016-12-26T03:07:25.930Z,99.99
2016-12-26T03:08:25.922Z,99.99
2016-12-26T03:09:25.912Z,99.99
2016-12-26T03:10:25.907Z,99.99
2016-12-26T03:11:25.900Z,99.99
2016-12-26T03:12:25.891Z,99.99
2016-12-26T03:13:25.883Z,99.99
2016-12-26T03:14:25.876Z,99.99
2016-12-26T03:15:25.869Z,99.99
2016-12-26T03:16:25.871Z,99.99
2016-12-26T03:17:25.855Z,99.99
2016-12-26T03:18:25.846Z,99.99
2016-12-26T03:19:25.839Z,99.99
2016-12-26T03:20:25.833Z,99.99
2016-12-26T03:21:25.824Z,99.99
2016-12-26T03:22:25.816Z,99.99
2016-12-26T03:23:25.808Z,99.99
2016-12-26T03:24:25.801Z,99.99
2016-12-26T03:25:25.794Z,99.99
2016-12-26T03:26:25.790Z,99.99
2016-12-26T03:27:25.779Z,99.99
2016-12-26T03:28:25.774Z,99.99
2016-12-26T03:29:25.765Z,99.99
2016-12-26T03:30:25.758Z,99.99
2016-12-26T03:31:25.749Z,99.99
2016-12-26T03:32:25.743Z,99.99
2016-12-26T03:33:25.736Z,99.99
2016-12-26T03:34:25.726Z,99.99
2016-12-26T03:35:25.719Z,99.99
2016-12-26T03:36:25.713Z,99.99
2016-12-26T03:37:25.706Z,99.99
2016-12-26T03:38:25.697Z,99.99
2016-12-26T03:39:25.691Z,99.99
2016-12-26T03:40:25.691Z,99.99
2016-12-26T03:41:25.676Z,99.99
2016-12-26T03:42:25.671Z,99.99
2016-12-26T03:43:25.663Z,99.99
2016-12-26T03:44:25.656Z,99.99
2016-12-26T03:45:25.647Z,99.99
2016-12-26T03:46:25.638Z,99.99
2016-12-26T03:47:25.666Z,99.99
2016-12-26T03:48:25.626Z,99.99
2016-12-26T03:49:25.617Z,99.99
2016-12-26T03:50:25.609Z,99.99
2016-12-26T03:51:25.603Z,99.99
2016-12-26T03:52:25.592Z,99.99
2016-12-26T03:53:25.587Z,99.99
2016-12-26T03:54:25.578Z,99.99
2016-12-26T03:55:25.571Z,99.99
2016-12-26T03:56:25.564Z,99.99
2016-12-26T03:57:25.557Z,99.99
2016-12-26T03:58:25.558Z,99.99
2016-12-26T03:59:25.543Z,99.99
2016-12-26T04:00:25.535Z,99.99
2016-12-26T04:01:25.527Z,99.99
2016-12-26T04:02:25.517Z,99.99
2016-12-26T04:03:25.512Z,99.99
2016-12-26T04:04:25.503Z,99.99
2016-12-26T04:05:25.496Z,99.99
2016-12-26T04:06:25.491Z,99.99
2016-12-26T04:07:25.480Z,99.99
2016-12-26T04:08:25.474Z,99.99
2016-12-26T04:09:25.466Z,99.99
2016-12-26T04:10:25.460Z,99.99
2016-12-26T04:11:25.451Z,99.99
2016-12-26T04:12:25.442Z,99.99
2016-12-26T04:13:25.436Z,99.99
2016-12-26T04:14:25.430Z,99.99
2016-12-26T04:15:25.420Z,99.99
2016-12-26T04:16:25.413Z,99.99
2016-12-26T04:17:25.405Z,99.99
2016-12-26T04:18:25.403Z,99.99
2016-12-26T04:19:25.388Z,99.99
2016-12-26T04:20:25.382Z,99.99
2016-12-26T04:21:25.375Z,99.99
2016-12-26T04:22:25.365Z,99.99
2016-12-26T04:23:25.359Z,99.99
2016-12-26T04:24:25.655Z,99.99
2016-12-26T04:25:25.344Z,99.99
2016-12-26T04:26:25.336Z,99.99
2016-12-26T04:27:25.328Z,99.99
2016-12-26T04:28:25.323Z,99.99
2016-12-26T04:29:25.314Z,99.99
2016-12-26T04:30:25.307Z,99.99
2016-12-26T04:31:25.298Z,99.99
2016-12-26T04:32:25.293Z,99.99
2016-12-26T04:33:25.282Z,99.99
2016-12-26T04:34:25.275Z,99.99
2016-12-26T04:35:25.270Z,99.99
2016-12-26T04:36:25.260Z,99.99
2016-12-26T04:37:25.252Z,99.99
2016-12-26T04:38:25.247Z,99.99
2016-12-26T04:39:25.238Z,99.99
2016-12-26T04:40:25.231Z,99.99
2016-12-26T04:41:25.224Z,99.99
2016-12-26T04:42:25.219Z,99.99
2016-12-26T04:43:25.207Z,99.99
2016-12-26T04:44:25.199Z,99.99
2016-12-26T04:45:25.221Z,99.99
2016-12-26T04:46:25.188Z,99.99
2016-12-26T04:47:25.181Z,99.99
2016-12-26T04:48:25.170Z,99.99
2016-12-26T04:49:25.162Z,99.99
2016-12-26T04:50:25.156Z,99.99
2016-12-26T04:51:25.146Z,99.99
2016-12-26T04:52:25.144Z,99.99
2016-12-26T04:53:25.134Z,99.99
2016-12-26T04:54:25.125Z,99.99
2016-12-26T04:55:25.118Z,99.99
2016-12-26T04:56:25.108Z,99.99
2016-12-26T04:57:25.104Z,99.99
2016-12-26T04:58:25.095Z,99.99
2016-12-26T04:59:25.086Z,99.99
2016-12-26T05:00:25.079Z,99.99
2016-12-26T05:01:25.075Z,99.99
2016-12-26T05:02:25.064Z,99.99
2016-12-26T05:03:25.055Z,99.99
2016-12-26T05:04:25.051Z,99.99
2016-12-26T05:05:25.041Z,99.99
2016-12-26T05:06:25.036Z,99.99
2016-12-26T05:07:25.028Z,99.99
2016-12-26T05:08:25.017Z,99.99
2016-12-26T05:09:25.012Z,99.99
2016-12-26T05:10:25.002Z,99.99
2016-12-26T05:11:25.001Z,99.99
2016-12-26T05:12:24.988Z,99.99
2016-12-26T05:13:24.980Z,99.99
2016-12-26T05:14:24.973Z,99.99
2016-12-26T05:15:24.964Z,99.99
2016-12-26T05:16:24.958Z,99.99
2016-12-26T05:17:24.949Z,99.99
2016-12-26T05:18:24.942Z,99.99
2016-12-26T05:19:24.936Z,99.99
2016-12-26T05:20:24.927Z,99.99
2016-12-26T05:21:24.920Z,99.99
2016-12-26T05:22:24.912Z,99.99
2016-12-26T05:23:24.905Z,99.99
2016-12-26T05:24:24.896Z,99.99
2016-12-26T05:25:24.888Z,99.99
2016-12-26T05:26:24.883Z,99.99
2016-12-26T05:27:24.873Z,99.99
2016-12-26T05:28:24.866Z,99.99
2016-12-26T05:29:24.860Z,99.99
2016-12-26T05:30:24.850Z,99.99
2016-12-26T05:31:24.843Z,99.99
2016-12-26T05:32:24.835Z,99.99
2016-12-26T05:33:24.829Z,99.99
2016-12-26T05:34:24.820Z,99.99
2016-12-26T05:35:24.814Z,99.99
2016-12-26T05:36:24.809Z,99.99
2016-12-26T05:37:24.797Z,99.99
2016-12-26T05:38:24.788Z,99.99
2016-12-26T05:39:24.779Z,99.99
2016-12-26T05:40:24.774Z,99.99
2016-12-26T05:41:24.767Z,99.99
2016-12-26T05:42:24.758Z,99.99
2016-12-26T05:43:24.750Z,99.99
2016-12-26T05:44:24.741Z,99.99
2016-12-26T05:45:24.735Z,99.99
2016-12-26T05:46:24.727Z,99.99
2016-12-26T05:47:24.720Z,99.99
2016-12-26T05:48:24.710Z,99.99
2016-12-26T05:49:24.703Z,99.99
2016-12-26T05:50:24.694Z,99.99
2016-12-26T05:51:24.690Z,99.99
2016-12-26T05:52:24.680Z,99.99
2016-12-26T05:53:24.670Z,99.99
2016-12-26T05:54:24.663Z,99.99
2016-12-26T05:55:24.656Z,99.99
2016-12-26T05:56:24.677Z,99.99
2016-12-26T05:57:24.641Z,99.99
2016-12-26T05:58:24.632Z,99.99
2016-12-26T05:59:24.625Z,99.99
2016-12-26T06:00:24.618Z,99.99
2016-12-26T06:01:24.610Z,99.99
2016-12-26T06:02:24.600Z,99.99
2016-12-26T06:03:24.595Z,99.99
2016-12-26T06:04:24.585Z,99.99
2016-12-26T06:05:24.578Z,99.99
2016-12-26T06:06:24.569Z,99.99
2016-12-26T06:07:24.562Z,99.99
2016-12-26T06:08:24.553Z,99.99
2016-12-26T06:09:24.547Z,99.99
2016-12-26T06:10:24.538Z,99.99
2016-12-26T06:11:24.532Z,99.99
2016-12-26T06:12:24.523Z,99.99
2016-12-26T06:13:24.515Z,99.99
2016-12-26T06:14:24.507Z,99.99
2016-12-26T06:15:24.498Z,99.99
2016-12-26T06:16:24.492Z,99.99
2016-12-26T06:17:24.482Z,99.99
2016-12-26T06:18:24.479Z,99.99
2016-12-26T06:19:24.466Z,99.99
2016-12-26T06:20:24.461Z,99.99
2016-12-26T06:21:24.455Z,99.99
2016-12-26T06:22:24.444Z,99.99
2016-12-26T06:23:24.435Z,99.99
2016-12-26T06:24:24.427Z,99.99
2016-12-26T06:25:24.423Z,99.99
2016-12-26T06:26:24.413Z,99.99
2016-12-26T06:27:24.407Z,99.99
2016-12-26T06:28:24.398Z,99.99
2016-12-26T06:29:24.391Z,99.99
2016-12-26T06:30:24.380Z,99.99
2016-12-26T06:31:24.376Z,99.99
2016-12-26T06:32:24.367Z,99.99
2016-12-26T06:33:24.363Z,99.99
2016-12-26T06:34:24.351Z,99.99
2016-12-26T06:35:24.342Z,99.99
2016-12-26T06:36:24.334Z,99.99
2016-12-26T06:37:24.325Z,99.99
2016-12-26T06:38:24.318Z,99.99
2016-12-26T06:39:24.310Z,99.99
2016-12-26T06:40:24.301Z,99.99
2016-12-26T06:41:24.295Z,99.99
2016-12-26T06:42:24.284Z,99.99
2016-12-26T06:43:24.281Z,99.99
2016-12-26T06:44:24.271Z,99.99
2016-12-26T06:45:24.262Z,99.99
2016-12-26T06:46:24.254Z,99.99
2016-12-26T06:47:24.247Z,99.99
2016-12-26T06:48:24.237Z,99.99
2016-12-26T06:49:24.230Z,99.99
2016-12-26T06:50:24.223Z,99.99
2016-12-26T06:51:24.216Z,99.99
2016-12-26T06:52:24.207Z,99.99
2016-12-26T06:53:24.199Z,99.99
2016-12-26T06:54:24.195Z,99.99
2016-12-26T06:55:24.181Z,99.99
2016-12-26T06:56:24.173Z,99.99
2016-12-26T06:57:24.165Z,99.99
2016-12-26T06:58:24.158Z,99.99
2016-12-26T06:59:24.150Z,99.99
2016-12-26T07:00:24.143Z,99.99
2016-12-26T07:01:24.134Z,99.99
2016-12-26T07:02:24.123Z,99.99
2016-12-26T07:03:24.117Z,99.99
2016-12-26T07:04:24.108Z,99.99
2016-12-26T07:05:24.107Z,99.99
2016-12-26T07:06:24.091Z,99.99
2016-12-26T07:07:24.085Z,99.99
2016-12-26T07:08:24.078Z,99.99
2016-12-26T07:09:24.070Z,99.99
2016-12-26T07:10:24.059Z,99.99
2016-12-26T07:11:24.052Z,99.99
2016-12-26T07:12:24.044Z,99.99
2016-12-26T07:13:24.035Z,99.99
2016-12-26T07:14:24.030Z,99.99
2016-12-26T07:15:24.019Z,99.99
2016-12-26T07:16:24.010Z,99.99
2016-12-26T07:17:24.001Z,99.99
2016-12-26T07:18:23.992Z,99.99
2016-12-26T07:19:23.986Z,99.99
2016-12-26T07:20:23.977Z,99.99
2016-12-26T07:21:23.970Z,99.99
2016-12-26T07:22:23.960Z,99.99
2016-12-26T07:23:23.954Z,99.99
2016-12-26T07:24:23.945Z,99.99
2016-12-26T07:25:23.946Z,99.99
2016-12-26T07:26:23.927Z,99.99
2016-12-26T07:27:23.919Z,99.99
2016-12-26T07:28:23.911Z,99.99
2016-12-26T07:29:23.902Z,99.99
2016-12-26T07:30:23.895Z,99.99
2016-12-26T07:31:23.889Z,99.99
2016-12-26T07:32:23.877Z,99.99
2016-12-26T07:33:23.868Z,99.99
2016-12-26T07:34:23.861Z,99.99
2016-12-26T07:35:23.851Z,99.99
2016-12-26T07:36:23.843Z,99.99
2016-12-26T07:37:23.835Z,99.99
2016-12-26T07:38:23.829Z,99.99
2016-12-26T07:39:23.821Z,99.99
2016-12-26T07:40:23.809Z,99.99
2016-12-26T07:41:23.802Z,99.99
2016-12-26T07:42:23.796Z,99.99
2016-12-26T07:43:23.788Z,99.99
2016-12-26T07:44:23.777Z,99.99
2016-12-26T07:45:23.771Z,99.99
2016-12-26T07:46:23.760Z,99.99
2016-12-26T07:47:23.752Z,99.99
2016-12-26T07:48:23.745Z,99.99
2016-12-26T07:49:23.765Z,99.99
2016-12-26T07:50:23.727Z,99.99
2016-12-26T07:51:23.719Z,99.99
2016-12-26T07:52:23.713Z,99.99
2016-12-26T07:53:23.705Z,99.99
2016-12-26T07:54:23.695Z,99.99
2016-12-26T07:55:23.688Z,99.99
2016-12-26T07:56:23.683Z,99.99
2016-12-26T07:57:23.671Z,99.99
2016-12-26T07:58:23.662Z,99.99
2016-12-26T07:59:23.655Z,99.99
2016-12-26T08:00:23.648Z,99.99
2016-12-26T08:01:23.638Z,99.99
2016-12-26T08:02:23.629Z,99.99
2016-12-26T08:03:23.623Z,99.99
2016-12-26T08:04:23.615Z,99.99
2016-12-26T08:05:23.604Z,99.99
2016-12-26T08:06:23.597Z,99.99
2016-12-26T08:07:23.591Z,99.99
2016-12-26T08:08:23.581Z,99.99
2016-12-26T08:09:23.574Z,99.99
2016-12-26T08:10:23.566Z,99.99
2016-12-26T08:11:23.560Z,99.99
2016-12-26T08:12:23.549Z,99.99
2016-12-26T08:13:23.844Z,99.99
2016-12-26T08:14:23.535Z,99.99
2016-12-26T08:15:23.527Z,99.99
2016-12-26T08:16:23.519Z,99.99
2016-12-26T08:17:23.510Z,99.99
2016-12-26T08:18:23.503Z,99.99
2016-12-26T08:19:23.494Z,99.99
2016-12-26T08:20:23.488Z,99.99
2016-12-26T08:21:23.481Z,99.99
2016-12-26T08:22:23.471Z,99.99
2016-12-26T08:23:23.466Z,99.99
2016-12-26T08:24:23.464Z,99.99
2016-12-26T08:25:23.448Z,99.99
2016-12-26T08:26:23.443Z,99.99
2016-12-26T08:27:23.433Z,99.99
2016-12-26T08:28:23.429Z,99.99
2016-12-26T08:29:23.420Z,99.99
2016-12-26T08:30:23.410Z,99.99
2016-12-26T08:31:23.404Z,99.99
2016-12-26T08:32:23.397Z,99.99
2016-12-26T08:33:23.388Z,99.99
2016-12-26T08:34:23.379Z,99.99
2016-12-26T08:35:23.375Z,99.99
2016-12-26T08:36:23.369Z,99.99
2016-12-26T08:37:23.360Z,99.99
2016-12-26T08:38:23.348Z,99.99
2016-12-26T08:39:23.343Z,99.99
2016-12-26T08:40:23.338Z,99.99
2016-12-26T08:41:23.327Z,99.99
2016-12-26T08:42:23.320Z,99.99
2016-12-26T08:43:23.315Z,99.99
2016-12-26T08:44:23.310Z,99.99
2016-12-26T08:45:23.298Z,99.99
2016-12-26T08:46:23.292Z,99.99
2016-12-26T08:47:23.284Z,99.99
2016-12-26T08:48:23.280Z,99.99
2016-12-26T08:49:23.269Z,99.99
2016-12-26T08:50:23.263Z,99.99
2016-12-26T08:51:23.254Z,99.99
2016-12-26T08:52:23.246Z,99.99
2016-12-26T08:53:23.238Z,99.99
2016-12-26T08:54:23.233Z,99.99
2016-12-26T08:55:23.227Z,99.99
2016-12-26T08:56:23.218Z,99.99
2016-12-26T08:57:23.213Z,99.99
2016-12-26T08:58:23.241Z,99.99
2016-12-26T08:59:23.197Z,99.99
2016-12-26T09:00:23.189Z,99.99
2016-12-26T09:01:23.182Z,99.99
2016-12-26T09:02:23.176Z,99.99
2016-12-26T09:03:23.169Z,99.99
2016-12-26T09:04:23.164Z,99.99
2016-12-26T09:05:23.156Z,99.99
2016-12-26T09:06:23.151Z,99.99
2016-12-26T09:07:23.140Z,99.99
2016-12-26T09:08:23.132Z,99.99
2016-12-26T09:09:23.126Z,99.99
2016-12-26T09:10:23.119Z,99.99
2016-12-26T09:11:23.113Z,99.99
2016-12-26T09:12:23.106Z,99.99
2016-12-26T09:13:23.098Z,99.99
2016-12-26T09:14:23.091Z,99.99
2016-12-26T09:15:23.087Z,99.99
2016-12-26T09:16:23.078Z,99.99
2016-12-26T09:17:23.070Z,99.99
2016-12-26T09:18:23.062Z,99.99
2016-12-26T09:19:23.057Z,99.99
2016-12-26T09:20:23.049Z,99.99
2016-12-26T09:21:23.043Z,99.99
2016-12-26T09:22:23.036Z,99.99
2016-12-26T09:23:23.030Z,99.99
2016-12-26T09:24:23.022Z,99.99
2016-12-26T09:25:23.034Z,99.99
2016-12-26T09:26:23.008Z,99.99
2016-12-26T09:27:23.004Z,99.99
2016-12-26T09:28:22.996Z,99.99
2016-12-26T09:29:22.989Z,99.99
2016-12-26T09:30:22.984Z,99.99
2016-12-26T09:31:23.278Z,99.99
2016-12-26T09:32:22.968Z,99.99
2016-12-26T09:33:22.961Z,99.99
2016-12-26T09:34:22.959Z,99.99
2016-12-26T09:35:22.955Z,99.99
2016-12-26T09:36:22.942Z,99.99
2016-12-26T09:37:22.937Z,99.99
2016-12-26T09:38:22.931Z,99.99
2016-12-26T09:39:22.929Z,99.99
2016-12-26T09:40:22.916Z,99.99
2016-12-26T09:41:22.911Z,99.99
2016-12-26T09:42:22.905Z,99.99
2016-12-26T09:43:22.899Z,99.99
2016-12-26T09:44:22.890Z,99.99
2016-12-26T09:45:22.886Z,99.99
2016-12-26T09:46:22.883Z,99.99
2016-12-26T09:47:23.177Z,99.99
2016-12-26T09:48:22.867Z,99.99
2016-12-26T09:49:22.860Z,99.99
2016-12-26T09:50:22.856Z,99.99
2016-12-26T09:51:22.847Z,99.99
2016-12-26T09:52:22.841Z,99.99
2016-12-26T09:53:22.840Z,99.99
2016-12-26T09:54:22.829Z,99.99
2016-12-26T09:55:22.823Z,99.99
2016-12-26T09:56:22.820Z,99.99
2016-12-26T09:57:22.811Z,99.99
2016-12-26T09:58:22.805Z,99.99
2016-12-26T09:59:22.800Z,99.99
2016-12-26T10:00:22.793Z,99.99
2016-12-26T10:01:22.790Z,99.99
2016-12-26T10:02:22.781Z,99.99
2016-12-26T10:03:22.777Z,99.99
2016-12-26T10:04:22.802Z,99.99
2016-12-26T10:05:22.763Z,99.99
2016-12-26T10:06:22.760Z,99.99
2016-12-26T10:07:22.752Z,99.99
2016-12-26T10:08:22.747Z,99.99
2016-12-26T10:09:22.740Z,99.99
2016-12-26T10:10:22.734Z,99.99
2016-12-26T10:11:22.728Z,99.99
2016-12-26T10:12:22.721Z,99.99
2016-12-26T10:13:22.715Z,99.99
2016-12-26T10:14:22.711Z,99.99
2016-12-26T10:15:22.703Z,99.99
2016-12-26T10:16:22.696Z,99.99
2016-12-26T10:17:22.690Z,99.99
2016-12-26T10:18:22.683Z,99.99
2016-12-26T10:19:22.679Z,99.99
2016-12-26T10:20:22.672Z,99.99
2016-12-26T10:21:22.665Z,99.99
2016-12-26T10:22:22.659Z,99.99
2016-12-26T10:23:22.667Z,99.99
2016-12-26T10:24:22.648Z,99.99
2016-12-26T10:25:22.640Z,99.99
2016-12-26T10:26:22.638Z,99.99
2016-12-26T10:27:22.627Z,99.99
2016-12-26T10:28:22.622Z,99.99
2016-12-26T10:29:22.618Z,99.99
2016-12-26T10:30:22.608Z,99.99
2016-12-26T10:31:22.603Z,99.99
2016-12-26T10:32:22.596Z,99.99
2016-12-26T10:33:22.590Z,99.99
2016-12-26T10:34:22.591Z,99.99
2016-12-26T10:35:22.578Z,99.99
2016-12-26T10:36:22.581Z,99.99
2016-12-26T10:37:22.567Z,99.99
2016-12-26T10:38:22.556Z,99.99
2016-12-26T10:39:22.551Z,99.99
2016-12-26T10:40:22.549Z,99.99
2016-12-26T10:41:22.538Z,99.99
2016-12-26T10:42:22.534Z,99.99
2016-12-26T10:43:22.529Z,99.99
2016-12-26T10:44:22.552Z,99.99
2016-12-26T10:45:22.513Z,99.99
2016-12-26T10:46:22.506Z,99.99
2016-12-26T10:47:22.501Z,99.99
2016-12-26T10:48:22.494Z,99.99
2016-12-26T10:49:22.486Z,99.99
2016-12-26T10:50:22.483Z,99.99
2016-12-26T10:51:22.475Z,99.99
2016-12-26T10:52:22.472Z,99.99
2016-12-26T10:53:22.461Z,99.99
2016-12-26T10:54:22.454Z,99.99
2016-12-26T10:55:22.457Z,99.99
2016-12-26T10:56:22.443Z,99.99
2016-12-26T10:57:22.436Z,99.99
2016-12-26T10:58:22.432Z,99.99
2016-12-26T10:59:22.424Z,99.99
2016-12-26T11:00:22.419Z,99.99
2016-12-26T11:01:22.411Z,99.99
2016-12-26T11:02:22.408Z,99.99
2016-12-26T11:03:22.399Z,99.99
2016-12-26T11:04:22.391Z,99.99
2016-12-26T11:05:22.386Z,99.99
2016-12-26T11:06:22.379Z,99.99
2016-12-26T11:07:22.375Z,99.99
2016-12-26T11:08:22.366Z,98.56
2016-12-26T11:09:22.363Z,98.66
2016-12-26T11:10:22.356Z,99.99
2016-12-26T11:11:22.348Z,99.99
2016-12-26T11:12:22.342Z,99.99
2016-12-26T11:13:22.335Z,99.99
2016-12-26T11:14:22.337Z,99.99
2016-12-26T11:15:22.324Z,99.99
2016-12-26T11:16:22.315Z,99.99
2016-12-26T11:17:22.310Z,99.99
2016-12-26T11:18:22.302Z,99.99
2016-12-26T11:19:22.297Z,99.99
2016-12-26T11:20:22.292Z,99.99
2016-12-26T11:21:22.285Z,99.99
2016-12-26T11:22:22.277Z,99.99
2016-12-26T11:23:22.277Z,99.99
2016-12-26T11:24:22.266Z,98.85
2016-12-26T11:25:22.263Z,98.47
2016-12-26T11:26:22.253Z,99.8
2016-12-26T11:27:22.246Z,99.99
2016-12-26T11:28:22.242Z,99.99
2016-12-26T11:29:22.235Z,99.99
2016-12-26T11:30:22.229Z,99.99
2016-12-26T11:31:22.221Z,99.99
2016-12-26T11:32:22.215Z,99.99
2016-12-26T11:33:22.207Z,99.99
2016-12-26T11:34:22.203Z,99.99
2016-12-26T11:35:22.196Z,99.99
2016-12-26T11:36:22.193Z,99.99
2016-12-26T11:37:22.191Z,99.99
2016-12-26T11:38:22.179Z,99.99
2016-12-26T11:39:22.176Z,99.99
2016-12-26T11:40:22.167Z,99.99
2016-12-26T11:41:22.159Z,99.99
2016-12-26T11:42:22.155Z,99.99
2016-12-26T11:43:22.151Z,99.99
2016-12-26T11:44:22.141Z,99.99
2016-12-26T11:45:22.136Z,99.99
2016-12-26T11:46:22.130Z,99.99
2016-12-26T11:47:22.123Z,99.99
2016-12-26T11:48:22.119Z,99.99
2016-12-26T11:49:22.112Z,99.57
2016-12-26T11:50:22.107Z,99.99
2016-12-26T11:51:22.099Z,99.99
2016-12-26T11:52:22.092Z,99.99
2016-12-26T11:53:22.086Z,99.99
2016-12-26T11:54:22.082Z,99.66
2016-12-26T11:55:22.075Z,99.99
2016-12-26T11:56:22.075Z,99.99
2016-12-26T11:57:22.071Z,99.99
2016-12-26T11:58:22.056Z,99.99
2016-12-26T11:59:22.049Z,99.99
2016-12-26T12:00:22.045Z,99.95
2016-12-26T12:01:22.041Z,98.9
2016-12-26T12:02:22.034Z,99.99
2016-12-26T12:03:22.027Z,99.95
2016-12-26T12:04:22.026Z,99.99
2016-12-26T12:05:22.016Z,99.99
2016-12-26T12:06:22.008Z,99.99
2016-12-26T12:07:22.002Z,99.99
2016-12-26T12:08:21.996Z,99.99
2016-12-26T12:09:21.991Z,99.37
2016-12-26T12:10:21.984Z,99.57
2016-12-26T12:11:21.981Z,99.76
2016-12-26T12:12:21.976Z,99.99
2016-12-26T12:13:21.967Z,99.99
2016-12-26T12:14:21.960Z,99.08
2016-12-26T12:15:21.956Z,99.85
2016-12-26T12:16:21.948Z,99.99
2016-12-26T12:17:21.942Z,99.99
2016-12-26T12:18:21.937Z,99.47
2016-12-26T12:19:21.931Z,99.47
2016-12-26T12:20:21.924Z,96.32
2016-12-26T12:21:21.919Z,95.89
2016-12-26T12:22:21.911Z,96.46
2016-12-26T12:23:21.906Z,96.84
2016-12-26T12:24:21.899Z,97.51
2016-12-26T12:25:21.894Z,96.41
2016-12-26T12:26:21.886Z,94.51
2016-12-26T12:27:21.881Z,95.08
2016-12-26T12:28:21.879Z,95.56
2016-12-26T12:29:21.868Z,96.13
2016-12-26T12:30:21.865Z,95.51
2016-12-26T12:31:21.854Z,96.46
2016-12-26T12:32:21.848Z,97.99
2016-12-26T12:33:21.842Z,98.27
2016-12-26T12:34:21.835Z,99.13
2016-12-26T12:35:21.827Z,99.04
2016-12-26T12:36:21.819Z,98.36
2016-12-26T12:37:21.812Z,97.75
2016-12-26T12:38:21.806Z,97.46
2016-12-26T12:39:21.800Z,96.98
2016-12-26T12:40:21.791Z,95.75
2016-12-26T12:41:21.785Z,97.27
2016-12-26T12:42:21.778Z,95.84
2016-12-26T12:43:21.777Z,98.08
2016-12-26T12:44:21.763Z,99.13
2016-12-26T12:45:21.757Z,96.65
2016-12-26T12:46:21.747Z,97.22
2016-12-26T12:47:21.742Z,98.55
2016-12-26T12:48:21.734Z,98.65
2016-12-26T12:49:21.724Z,97.89
2016-12-26T12:50:21.716Z,99.03
2016-12-26T12:51:21.714Z,99.41
2016-12-26T12:52:21.702Z,97.7